createdAt,value
2023-03-22T00:00:31.062Z,99.00
2023-03-22T00:02:59.042Z,99.00
2023-03-22T00:05:27.244Z,99.00
2023-03-22T00:07:58.063Z,99.00
2023-03-22T00:10:27.590Z,99.00
2023-03-22T00:12:55.785Z,99.00
2023-03-22T00:15:24.194Z,99.00
2023-03-22T00:17:53.801Z,99.00
2023-03-22T00:20:23.554Z,99.00
2023-03-22T00:22:51.735Z,99.00
2023-03-22T00:25:20.190Z,99.00
2023-03-22T00:27:48.262Z,99.00
2023-03-22T00:30:16.691Z,99.00
2023-03-22T00:32:44.593Z,99.00
2023-03-22T00:35:14.143Z,99.00
2023-03-22T00:37:42.609Z,99.00
2023-03-22T00:40:13.460Z,99.00
2023-03-22T00:42:42.650Z,99.00
2023-03-22T00:45:13.224Z,99.00
2023-03-22T00:47:41.514Z,99.00
2023-03-22T00:50:11.088Z,99.00
2023-03-22T00:52:40.376Z,99.00
2023-03-22T00:55:08.875Z,99.00
2023-03-22T00:57:37.747Z,99.00
2023-03-22T01:00:15.985Z,99.00
2023-03-22T01:02:44.404Z,99.00
2023-03-22T01:05:18.315Z,99.00
2023-03-22T01:07:50.703Z,99.00
2023-03-22T01:10:19.574Z,99.00
2023-03-22T01:12:47.487Z,99.10
2023-03-22T01:15:15.734Z,99.00
2023-03-22T01:17:43.646Z,99.00
2023-03-22T01:20:13.000Z,99.00
2023-03-22T01:22:43.327Z,99.00
2023-03-22T01:25:12.702Z,99.10
2023-03-22T01:27:40.644Z,99.00
2023-03-22T01:30:09.965Z,99.00
2023-03-22T01:32:38.479Z,99.10
2023-03-22T01:35:07.465Z,99.10
2023-03-22T01:37:38.018Z,99.10
2023-03-22T01:40:07.540Z,99.10
2023-03-22T01:42:36.939Z,99.10
2023-03-22T01:45:37.413Z,99.10
2023-03-22T01:48:17.677Z,99.10
2023-03-22T01:50:50.632Z,99.10
2023-03-22T01:53:23.590Z,99.00
2023-03-22T01:55:52.929Z,99.10
2023-03-22T01:58:22.324Z,99.00
2023-03-22T02:00:51.656Z,99.00
2023-03-22T02:03:24.701Z,99.00
2023-03-22T02:05:53.760Z,99.40
2023-03-22T02:08:21.748Z,99.30
2023-03-22T02:10:49.736Z,99.10
2023-03-22T02:13:31.369Z,99.00
2023-03-22T02:16:12.225Z,99.10
2023-03-22T02:19:02.172Z,99.10
2023-03-22T02:21:55.545Z,99.10
2023-03-22T02:25:04.986Z,99.00
2023-03-22T02:27:50.693Z,99.00
2023-03-22T02:30:38.876Z,99.00
2023-03-22T02:33:31.127Z,99.00
2023-03-22T02:36:19.742Z,99.00
2023-03-22T02:39:13.677Z,99.00
2023-03-22T02:41:55.142Z,99.00
2023-03-22T02:44:28.156Z,99.00
2023-03-22T02:47:02.590Z,99.00
2023-03-22T02:49:37.325Z,99.00
2023-03-22T02:52:12.358Z,99.00
2023-03-22T02:54:48.315Z,99.10
2023-03-22T02:57:23.614Z,99.00
2023-03-22T02:59:52.732Z,99.00
2023-03-22T03:02:22.781Z,99.00
2023-03-22T03:04:52.985Z,99.10
2023-03-22T03:07:25.610Z,99.00
2023-03-22T03:09:55.495Z,99.00
2023-03-22T03:12:26.237Z,99.40
2023-03-22T03:14:54.381Z,99.10
2023-03-22T03:17:31.653Z,99.00
2023-03-22T03:20:14.108Z,99.00
2023-03-22T03:22:53.629Z,99.00
2023-03-22T03:25:31.286Z,99.00
2023-03-22T03:28:05.534Z,99.00
2023-03-22T03:30:39.073Z,99.00
2023-03-22T03:33:10.674Z,99.00
2023-03-22T03:35:42.393Z,99.00
2023-03-22T03:38:14.719Z,99.00
2023-03-22T03:40:48.543Z,99.00
2023-03-22T03:43:17.557Z,99.10
2023-03-22T03:45:48.981Z,99.10
2023-03-22T03:48:21.182Z,99.10
2023-03-22T03:50:51.347Z,99.00
2023-03-22T03:53:19.372Z,99.00
2023-03-22T03:55:48.937Z,99.10
2023-03-22T03:58:17.238Z,99.10
2023-03-22T04:00:46.608Z,99.10
2023-03-22T04:03:15.341Z,99.00
2023-03-22T04:05:43.529Z,99.10
2023-03-22T04:08:11.498Z,99.10
2023-03-22T04:10:40.097Z,99.10
2023-03-22T04:13:10.206Z,99.10
2023-03-22T04:15:38.581Z,99.10
2023-03-22T04:18:07.202Z,99.10
2023-03-22T04:20:35.155Z,99.20
2023-03-22T04:23:03.249Z,99.10
2023-03-22T04:25:33.862Z,99.10
2023-03-22T04:28:04.321Z,99.10
2023-03-22T04:30:36.461Z,99.20
2023-03-22T04:33:07.000Z,99.10
2023-03-22T04:35:35.608Z,99.10
2023-03-22T04:38:03.727Z,99.30
2023-03-22T04:40:36.568Z,99.10
2023-03-22T04:43:05.079Z,99.20
2023-03-22T04:45:35.850Z,99.30
2023-03-22T04:48:03.836Z,99.30
2023-03-22T04:50:31.792Z,99.30
2023-03-22T04:52:59.809Z,99.30
2023-03-22T04:55:27.746Z,99.20
2023-03-22T04:57:55.928Z,99.60
2023-03-22T05:00:24.387Z,99.10
2023-03-22T05:02:53.925Z,99.20
2023-03-22T05:05:22.089Z,99.10
2023-03-22T05:07:49.994Z,99.10
2023-03-22T05:10:19.980Z,99.20
2023-03-22T05:12:47.837Z,99.20
2023-03-22T05:15:15.934Z,99.20
2023-03-22T05:17:43.755Z,99.20
2023-03-22T05:20:13.708Z,99.30
2023-03-22T05:22:41.529Z,99.30
2023-03-22T05:25:11.656Z,99.30
2023-03-22T05:27:39.551Z,99.30
2023-03-22T05:30:09.806Z,99.20
2023-03-22T05:32:37.636Z,99.30
2023-03-22T05:35:06.417Z,99.20
2023-03-22T05:37:36.868Z,99.20
2023-03-22T05:40:09.631Z,99.30
2023-03-22T05:42:37.623Z,99.20
2023-03-22T05:45:06.305Z,99.30
2023-03-22T05:47:34.239Z,99.30
2023-03-22T05:50:08.533Z,99.20
2023-03-22T05:52:40.154Z,99.20
2023-03-22T05:55:12.458Z,99.20
2023-03-22T05:57:40.805Z,99.30
2023-03-22T06:00:13.396Z,99.30
2023-03-22T06:02:41.347Z,99.10
2023-03-22T06:05:10.973Z,99.20
2023-03-22T06:07:41.201Z,99.10
2023-03-22T06:10:11.917Z,99.10
2023-03-22T06:12:40.985Z,99.50
2023-03-22T06:15:10.524Z,99.10
2023-03-22T06:17:38.524Z,99.10
2023-03-22T06:20:12.146Z,99.10
2023-03-22T06:22:41.717Z,99.10
2023-03-22T06:25:12.056Z,99.10
2023-03-22T06:27:40.306Z,99.10
2023-03-22T06:30:12.416Z,99.10
2023-03-22T06:32:40.842Z,99.10
2023-03-22T06:37:36.689Z,99.10
2023-03-22T06:40:07.139Z,99.10
2023-03-22T06:42:35.664Z,99.10
2023-03-22T06:45:03.942Z,99.10
2023-03-22T06:47:32.054Z,99.10
2023-03-22T06:49:59.972Z,99.00
2023-03-22T06:52:27.969Z,99.10
2023-03-22T06:54:56.807Z,99.00
2023-03-22T06:57:26.436Z,99.00
2023-03-22T06:59:54.629Z,99.10
2023-03-22T07:02:22.457Z,99.00
2023-03-22T07:04:50.568Z,99.00
2023-03-22T07:07:18.972Z,99.00
2023-03-22T07:09:47.396Z,98.90
2023-03-22T07:12:16.011Z,99.00
2023-03-22T07:14:48.649Z,99.00
2023-03-22T07:17:16.572Z,98.90
2023-03-22T07:19:55.413Z,98.90
2023-03-22T07:22:24.860Z,98.90
2023-03-22T07:24:57.610Z,99.00
2023-03-22T07:27:26.929Z,98.90
2023-03-22T07:30:03.470Z,98.90
2023-03-22T07:32:32.047Z,98.90
2023-03-22T07:35:01.492Z,99.00
2023-03-22T07:37:40.079Z,98.90
2023-03-22T07:40:11.657Z,98.90
2023-03-22T07:42:43.488Z,98.90
2023-03-22T07:45:29.546Z,98.90
2023-03-22T07:48:13.496Z,99.00
2023-03-22T07:53:34.065Z,98.90
2023-03-22T07:56:13.009Z,99.00
2023-03-22T07:58:46.050Z,98.90
2023-03-22T08:01:21.621Z,98.90
2023-03-22T08:03:50.250Z,99.00
2023-03-22T08:06:44.964Z,98.90
2023-03-22T08:09:29.202Z,98.90
2023-03-22T08:12:47.923Z,98.80
2023-03-22T08:15:43.288Z,98.80
2023-03-22T08:19:17.042Z,98.90
2023-03-22T08:21:58.097Z,99.00
2023-03-22T08:24:36.829Z,98.90
2023-03-22T08:27:52.869Z,98.90
2023-03-22T08:30:33.786Z,99.00
2023-03-22T08:33:36.293Z,99.00
2023-03-22T08:40:17.080Z,99.00
2023-03-22T08:43:51.346Z,98.90
2023-03-22T09:11:30.874Z,98.90
2023-03-22T09:22:36.532Z,98.70
2023-03-22T09:41:03.176Z,98.60
2023-03-22T09:44:37.200Z,98.60
2023-03-22T09:51:13.809Z,98.50
2023-03-22T09:58:28.696Z,98.50
2023-03-22T10:01:53.281Z,98.50
2023-03-22T10:05:30.759Z,98.50
2023-03-22T10:11:58.514Z,98.40
2023-03-22T10:14:57.133Z,98.50
2023-03-22T10:23:12.004Z,98.50
2023-03-22T10:25:38.812Z,98.40
2023-03-22T10:32:28.846Z,98.30
2023-03-22T10:39:20.587Z,98.30
2023-03-22T10:42:35.737Z,98.30
2023-03-22T10:46:00.090Z,98.30
2023-03-22T10:48:57.020Z,98.30
2023-03-22T10:51:58.141Z,98.20
2023-03-22T10:54:46.842Z,98.20
2023-03-22T10:57:58.318Z,98.20
2023-03-22T11:01:01.585Z,98.20
2023-03-22T11:10:48.753Z,98.20
2023-03-22T11:13:55.576Z,98.20
2023-03-22T11:16:55.649Z,98.20
2023-03-22T11:23:07.113Z,98.00
2023-03-22T11:26:14.300Z,98.10
2023-03-22T11:29:25.993Z,98.10
2023-03-22T11:32:59.304Z,98.00
2023-03-22T11:36:01.569Z,98.00
2023-03-22T11:38:45.584Z,98.00
2023-03-22T11:42:03.167Z,98.00
2023-03-22T12:03:18.900Z,98.00
2023-03-22T12:06:24.833Z,97.90
2023-03-22T12:09:38.060Z,97.80
2023-03-22T12:12:45.588Z,97.90
2023-03-22T12:19:38.087Z,97.80
2023-03-22T12:23:05.510Z,97.80
2023-03-22T12:30:20.569Z,97.70
2023-03-22T12:34:30.979Z,97.70
2023-03-22T12:40:26.814Z,97.70
2023-03-22T12:44:00.289Z,97.70
2023-03-22T12:46:57.749Z,97.60
2023-03-22T12:50:09.223Z,97.70
2023-03-22T12:57:02.473Z,97.60
2023-03-22T13:03:53.000Z,97.60
2023-03-22T13:07:20.051Z,97.50
2023-03-22T13:27:06.246Z,97.50
2023-03-22T13:30:51.112Z,97.40
2023-03-22T13:34:44.475Z,97.40
2023-03-22T13:37:26.899Z,97.30
2023-03-22T13:40:35.693Z,97.30
2023-03-22T13:43:56.903Z,97.30
2023-03-22T13:47:01.648Z,97.30
2023-03-22T13:49:52.892Z,97.30
2023-03-22T13:53:02.080Z,97.30
2023-03-22T13:56:01.592Z,97.20
2023-03-22T13:59:01.105Z,97.20
2023-03-22T14:02:12.725Z,97.20
2023-03-22T14:05:26.118Z,97.20
2023-03-22T14:19:12.498Z,97.20
